createdAt,value
2022-08-30T00:01:14.091Z,22.30
2022-08-30T00:03:46.738Z,22.50
2022-08-30T00:06:15.927Z,22.20
2022-08-30T00:08:44.825Z,22.10
2022-08-30T00:11:14.635Z,22.00
2022-08-30T00:13:44.673Z,21.90
2022-08-30T00:16:12.699Z,21.70
2022-08-30T00:18:40.894Z,21.70
2022-08-30T00:21:09.088Z,21.70
2022-08-30T00:23:36.458Z,21.60
2022-08-30T00:26:03.965Z,21.60
2022-08-30T00:28:32.061Z,21.70
2022-08-30T00:31:00.230Z,21.70
2022-08-30T00:33:27.117Z,22.00
2022-08-30T00:35:54.008Z,22.00
2022-08-30T00:38:21.927Z,21.90
2022-08-30T00:40:49.773Z,22.00
2022-08-30T00:43:25.772Z,21.90
2022-08-30T00:45:55.682Z,21.80
2022-08-30T00:48:23.445Z,21.60
2022-08-30T00:50:54.869Z,21.50
2022-08-30T00:53:25.670Z,21.60
2022-08-30T00:55:54.618Z,21.70
2022-08-30T00:58:28.513Z,21.70
2022-08-30T01:00:58.622Z,21.80
2022-08-30T01:03:26.622Z,21.60
2022-08-30T01:05:54.111Z,21.50
2022-08-30T01:08:22.340Z,21.40
2022-08-30T01:16:10.446Z,21.40
2022-08-30T01:18:39.640Z,21.40
2022-08-30T01:21:34.553Z,21.40
2022-08-30T01:24:02.921Z,21.30
2022-08-30T01:26:30.789Z,21.10
2022-08-30T01:29:03.955Z,21.00
2022-08-30T01:31:30.964Z,20.80
2022-08-30T01:33:57.766Z,20.80
2022-08-30T01:36:25.153Z,20.70
2022-08-30T01:38:55.708Z,20.60
2022-08-30T01:41:29.691Z,20.50
2022-08-30T01:43:59.103Z,20.40
2022-08-30T01:46:29.731Z,20.40
2022-08-30T01:48:58.761Z,20.40
2022-08-30T01:51:27.881Z,20.50
2022-08-30T01:53:55.276Z,20.70
2022-08-30T01:56:23.317Z,20.60
2022-08-30T01:58:51.389Z,20.60
2022-08-30T02:01:20.460Z,20.60
2022-08-30T02:03:48.456Z,20.50
2022-08-30T02:06:19.186Z,20.50
2022-08-30T02:08:46.704Z,20.50
2022-08-30T02:11:14.638Z,20.40
2022-08-30T02:13:43.141Z,20.40
2022-08-30T02:16:14.148Z,20.50
2022-08-30T02:18:41.469Z,20.40
2022-08-30T02:21:09.813Z,20.70
2022-08-30T02:23:37.400Z,20.80
2022-08-30T02:26:05.447Z,20.80
2022-08-30T02:28:34.293Z,20.80
2022-08-30T02:31:02.201Z,20.80
2022-08-30T02:33:29.228Z,20.70
2022-08-30T02:35:56.481Z,20.70
2022-08-30T02:38:24.241Z,20.70
2022-08-30T02:40:51.932Z,20.80
2022-08-30T02:43:19.454Z,20.80
2022-08-30T02:45:46.911Z,20.90
2022-08-30T02:48:13.977Z,20.90
2022-08-30T02:50:45.602Z,21.00
2022-08-30T02:53:16.134Z,21.30
2022-08-30T02:55:43.528Z,21.40
2022-08-30T02:58:11.036Z,21.30
2022-08-30T03:00:38.793Z,21.30
2022-08-30T03:03:07.408Z,21.20
2022-08-30T03:05:35.104Z,21.10
2022-08-30T03:08:04.784Z,21.00
2022-08-30T03:10:31.944Z,20.80
2022-08-30T03:12:59.158Z,20.80
2022-08-30T03:15:26.484Z,20.70
2022-08-30T03:17:54.881Z,20.70
2022-08-30T03:20:23.139Z,20.50
2022-08-30T03:22:50.111Z,20.40
2022-08-30T03:25:17.068Z,20.30
2022-08-30T03:27:44.054Z,20.20
2022-08-30T03:30:11.473Z,20.10
2022-08-30T03:32:39.436Z,20.10
2022-08-30T03:35:07.118Z,20.20
2022-08-30T03:37:35.230Z,20.20
2022-08-30T03:40:04.073Z,20.20
2022-08-30T03:42:30.940Z,20.10
2022-08-30T03:44:58.660Z,20.10
2022-08-30T03:47:25.958Z,20.10
2022-08-30T03:49:52.811Z,20.20
2022-08-30T03:52:19.576Z,20.10
2022-08-30T03:54:46.405Z,20.10
2022-08-30T03:57:19.685Z,20.10
2022-08-30T03:59:47.189Z,20.00
2022-08-30T04:02:14.133Z,19.90
2022-08-30T04:04:40.896Z,19.90
2022-08-30T04:07:08.062Z,19.90
2022-08-30T04:09:35.370Z,19.90
2022-08-30T04:12:02.426Z,19.90
2022-08-30T04:14:29.183Z,20.00
2022-08-30T04:16:55.931Z,20.00
2022-08-30T04:19:23.099Z,20.00
2022-08-30T04:21:50.081Z,20.10
2022-08-30T04:29:47.737Z,20.20
2022-08-30T04:32:16.227Z,20.30
2022-08-30T04:34:43.536Z,20.30
2022-08-30T04:37:10.321Z,20.40
2022-08-30T04:39:37.893Z,20.40
2022-08-30T04:42:05.184Z,20.40
2022-08-30T04:47:09.710Z,20.40
2022-08-30T04:49:36.720Z,20.50
2022-08-30T04:52:06.381Z,20.50
2022-08-30T04:54:33.242Z,20.40
2022-08-30T04:57:00.890Z,20.50
2022-08-30T04:59:28.766Z,20.50
2022-08-30T05:10:01.556Z,20.80
2022-08-30T05:12:28.921Z,20.80
2022-08-30T05:14:58.515Z,20.80
2022-08-30T05:17:26.259Z,19.40
2022-08-30T05:19:53.908Z,19.40
2022-08-30T05:38:54.635Z,21.50
2022-08-30T05:41:27.165Z,22.60
2022-08-30T05:50:10.991Z,21.90
2022-08-30T05:55:37.521Z,21.80
2022-08-30T06:01:34.994Z,21.70
2022-08-30T06:04:04.408Z,21.10
2022-08-30T06:06:35.561Z,20.10
2022-08-30T06:09:05.143Z,20.60
2022-08-30T06:14:10.042Z,21.70
2022-08-30T06:16:39.493Z,21.00
2022-08-30T06:19:12.868Z,21.40
2022-08-30T06:21:40.725Z,20.90
2022-08-30T06:27:06.491Z,22.50
2022-08-30T06:29:33.629Z,21.00
2022-08-30T06:32:00.933Z,21.10
2022-08-30T06:34:28.360Z,22.30
2022-08-30T06:36:55.798Z,21.70
2022-08-30T06:39:23.022Z,21.40
2022-08-30T06:41:50.733Z,21.30
2022-08-30T06:44:17.904Z,21.50
2022-08-30T06:46:49.743Z,22.60
2022-08-30T06:51:54.142Z,23.20
2022-08-30T06:54:21.827Z,23.30
2022-08-30T07:05:05.859Z,23.30
2022-08-30T07:12:53.819Z,23.70
2022-08-30T07:15:23.203Z,23.30
2022-08-30T07:18:09.700Z,22.40
2022-08-30T07:30:07.394Z,24.30
2022-08-30T07:35:12.430Z,24.40
2022-08-30T07:37:40.223Z,23.30
2022-08-30T07:49:46.682Z,24.90
2022-08-30T07:55:03.273Z,24.90
2022-08-30T08:13:55.864Z,25.10
2022-08-30T08:16:32.180Z,24.90
2022-08-30T08:18:59.655Z,23.80
2022-08-30T08:32:18.143Z,25.50
2022-08-30T08:34:45.552Z,25.00
2022-08-30T08:37:12.726Z,25.00
2022-08-30T08:39:39.780Z,25.40
2022-08-30T08:42:29.906Z,24.90
2022-08-30T08:45:00.345Z,24.10
2022-08-30T08:47:31.234Z,25.70
2022-08-30T08:50:03.195Z,24.80
2022-08-30T08:53:25.016Z,24.60
2022-08-30T08:55:58.244Z,26.00
2022-08-30T08:58:41.716Z,26.10
2022-08-30T09:01:10.780Z,26.20
2022-08-30T09:03:38.026Z,26.30
2022-08-30T09:06:32.619Z,26.30
2022-08-30T09:08:59.784Z,26.30
2022-08-30T09:17:10.297Z,26.30
2022-08-30T09:19:54.441Z,25.60
2022-08-30T09:22:26.675Z,26.30
2022-08-30T09:25:00.889Z,27.80
2022-08-30T09:27:32.881Z,27.80
2022-08-30T09:32:41.014Z,27.30
2022-08-30T09:35:18.301Z,25.90
2022-08-30T09:38:04.423Z,26.00
2022-08-30T09:40:39.690Z,26.10
2022-08-30T09:48:38.656Z,27.70
2022-08-30T09:54:25.462Z,26.50
2022-08-30T09:57:12.975Z,27.60
2022-08-30T10:00:02.658Z,28.50
2022-08-30T10:03:02.494Z,27.70
2022-08-30T10:05:56.824Z,28.90
2022-08-30T10:08:36.521Z,29.00
2022-08-30T10:11:31.751Z,29.00
2022-08-30T10:18:25.752Z,27.60
2022-08-30T10:23:51.715Z,29.00
2022-08-30T10:26:48.808Z,27.70
2022-08-30T10:29:25.711Z,27.50
2022-08-30T10:34:49.096Z,29.00
2022-08-30T10:37:21.956Z,28.90
2022-08-30T10:40:38.591Z,28.10
2022-08-30T10:43:13.836Z,29.00
2022-08-30T10:45:44.961Z,29.60
2022-08-30T10:48:28.977Z,29.50
2022-08-30T10:51:02.656Z,29.50
2022-08-30T10:56:34.122Z,30.50
2022-08-30T10:59:04.083Z,30.70
2022-08-30T11:01:47.185Z,31.10
2022-08-30T11:09:47.428Z,31.30
2022-08-30T11:12:51.961Z,31.10
2022-08-30T11:15:26.443Z,30.70
2022-08-30T11:18:02.385Z,30.70
2022-08-30T11:20:50.133Z,30.70
2022-08-30T11:23:34.123Z,30.60
2022-08-30T11:26:20.262Z,31.80
2022-08-30T11:28:48.294Z,31.00
2022-08-30T11:31:18.474Z,32.10
2022-08-30T11:33:48.434Z,33.40
2022-08-30T11:36:37.894Z,35.20
2022-08-30T11:39:06.958Z,37.10
2022-08-30T11:41:34.651Z,38.70
2022-08-30T11:44:14.611Z,39.30
2022-08-30T11:46:42.630Z,40.60
2022-08-30T11:49:15.514Z,42.20
2022-08-30T11:52:23.880Z,43.60
2022-08-30T11:55:17.497Z,44.80
2022-08-30T11:57:52.825Z,45.80
2022-08-30T12:00:39.692Z,46.40
2022-08-30T12:03:30.222Z,46.90
2022-08-30T12:06:01.429Z,47.10
2022-08-30T12:08:28.595Z,47.10
2022-08-30T12:10:58.990Z,46.50
2022-08-30T12:13:35.296Z,47.00
2022-08-30T12:16:09.381Z,47.10
2022-08-30T12:18:39.446Z,46.80
2022-08-30T12:21:22.514Z,46.70
2022-08-30T12:24:04.533Z,47.00
2022-08-30T12:26:36.136Z,47.40
2022-08-30T12:29:12.943Z,47.30
2022-08-30T12:31:55.923Z,47.80
2022-08-30T12:34:50.340Z,47.30
2022-08-30T12:37:30.149Z,48.10
2022-08-30T12:40:15.281Z,48.30
2022-08-30T12:42:52.333Z,48.70
2022-08-30T12:45:21.800Z,49.50
2022-08-30T12:47:51.687Z,49.80
2022-08-30T12:50:23.293Z,49.70
2022-08-30T12:53:01.599Z,49.80
2022-08-30T12:55:32.820Z,49.20
2022-08-30T12:58:04.509Z,49.30
2022-08-30T13:00:40.553Z,49.40
2022-08-30T13:03:36.816Z,49.90
2022-08-30T13:06:07.405Z,48.80
2022-08-30T13:08:37.474Z,48.70
2022-08-30T13:11:08.516Z,49.00
2022-08-30T13:13:37.956Z,49.40
2022-08-30T13:16:26.501Z,48.90
2022-08-30T13:19:22.591Z,49.60
2022-08-30T13:21:55.784Z,49.80
2022-08-30T13:24:25.726Z,48.90
2022-08-30T13:27:01.677Z,48.50
2022-08-30T13:29:29.326Z,48.40
2022-08-30T13:31:56.869Z,47.70
2022-08-30T13:34:23.745Z,46.90
2022-08-30T13:36:56.587Z,45.20
2022-08-30T13:39:23.692Z,43.20
2022-08-30T13:41:51.919Z,40.20
2022-08-30T13:44:19.374Z,38.70
2022-08-30T13:46:54.121Z,39.00
2022-08-30T13:49:48.123Z,41.00
2022-08-30T13:52:21.778Z,42.90
2022-08-30T13:54:54.139Z,44.30
2022-08-30T14:00:17.581Z,45.80
2022-08-30T14:02:51.630Z,46.30
2022-08-30T14:10:59.008Z,48.90
2022-08-30T14:13:29.139Z,48.50
2022-08-30T14:18:46.529Z,49.90
2022-08-30T14:21:13.995Z,48.50
2022-08-30T14:23:40.834Z,48.50
2022-08-30T14:26:17.236Z,48.50
2022-08-30T14:28:44.943Z,48.50
2022-08-30T14:31:12.783Z,48.40
2022-08-30T14:33:40.169Z,48.50
2022-08-30T14:36:12.499Z,48.20
2022-08-30T14:38:43.589Z,48.20
2022-08-30T14:41:11.031Z,48.00
2022-08-30T14:43:40.655Z,47.80
2022-08-30T14:46:08.979Z,47.40
2022-08-30T14:48:38.586Z,47.20
2022-08-30T14:51:17.428Z,45.30
2022-08-30T14:53:45.736Z,43.10
2022-08-30T14:56:16.384Z,41.10
2022-08-30T14:58:43.328Z,40.10
2022-08-30T15:01:12.444Z,39.80
2022-08-30T15:03:40.970Z,40.80
2022-08-30T15:06:09.694Z,42.20
2022-08-30T15:08:38.185Z,43.30
2022-08-30T15:11:12.061Z,44.00
2022-08-30T15:13:40.721Z,44.40
2022-08-30T15:16:12.310Z,44.80
2022-08-30T15:18:39.363Z,44.30
2022-08-30T15:21:08.903Z,43.90
2022-08-30T15:23:36.849Z,43.90
2022-08-30T15:26:04.340Z,44.30
2022-08-30T15:28:31.622Z,45.30
2022-08-30T15:30:58.789Z,45.10
2022-08-30T15:33:25.869Z,43.00
2022-08-30T15:35:52.965Z,40.90
2022-08-30T15:38:21.865Z,39.50
2022-08-30T15:40:50.060Z,37.70
2022-08-30T15:43:17.543Z,36.40
2022-08-30T15:45:44.592Z,36.10
2022-08-30T15:48:12.342Z,36.30
2022-08-30T15:50:39.341Z,35.60
2022-08-30T15:53:07.621Z,35.10
2022-08-30T15:55:34.668Z,35.00
2022-08-30T15:58:01.800Z,34.70
2022-08-30T16:00:29.220Z,34.50
2022-08-30T16:02:56.118Z,34.20
2022-08-30T16:05:23.744Z,34.20
2022-08-30T16:07:52.378Z,35.20
2022-08-30T16:10:19.539Z,35.40
2022-08-30T16:12:46.761Z,35.30
2022-08-30T16:15:14.412Z,34.90
2022-08-30T16:17:41.370Z,34.50
2022-08-30T16:20:09.527Z,33.90
2022-08-30T16:22:38.851Z,33.60
2022-08-30T16:25:12.596Z,33.40
2022-08-30T16:27:43.037Z,33.60
2022-08-30T16:30:11.974Z,34.20
2022-08-30T16:32:39.783Z,34.20
2022-08-30T16:35:07.936Z,33.80
2022-08-30T16:37:35.860Z,33.30
2022-08-30T16:40:04.677Z,33.60
2022-08-30T16:42:33.675Z,31.60
2022-08-30T16:45:02.494Z,30.80
2022-08-30T16:47:37.349Z,31.40
2022-08-30T16:50:05.069Z,29.90
2022-08-30T16:52:32.260Z,29.90
2022-08-30T16:54:59.412Z,29.60
2022-08-30T16:57:26.548Z,29.40
2022-08-30T16:59:55.382Z,29.20
2022-08-30T17:02:24.010Z,29.90
2022-08-30T17:04:53.189Z,30.50
2022-08-30T17:09:57.516Z,30.90
2022-08-30T17:12:24.952Z,29.80
2022-08-30T17:17:29.248Z,30.10
2022-08-30T17:19:56.856Z,29.40
2022-08-30T17:22:23.763Z,30.40
2022-08-30T17:24:53.082Z,30.10
2022-08-30T17:27:20.048Z,29.80
2022-08-30T17:29:48.050Z,29.40
2022-08-30T17:32:14.796Z,29.10
2022-08-30T17:34:41.975Z,28.70
2022-08-30T17:37:09.074Z,28.50
2022-08-30T17:39:36.828Z,28.40
2022-08-30T17:42:04.599Z,28.00
2022-08-30T17:44:34.332Z,27.70
2022-08-30T17:47:01.580Z,27.50
2022-08-30T17:49:29.334Z,27.30
2022-08-30T17:51:58.817Z,27.20
2022-08-30T17:54:27.463Z,27.10
2022-08-30T17:56:54.847Z,27.10
2022-08-30T17:59:24.797Z,27.00
2022-08-30T18:01:53.314Z,27.00
2022-08-30T18:04:20.536Z,26.90
2022-08-30T18:06:48.085Z,26.70
2022-08-30T18:09:16.958Z,26.60
2022-08-30T18:11:43.752Z,26.50
2022-08-30T18:14:12.736Z,26.40
2022-08-30T18:16:47.468Z,26.40
2022-08-30T18:19:20.611Z,26.30
2022-08-30T18:21:47.706Z,26.30
2022-08-30T18:24:16.654Z,26.20
2022-08-30T18:26:43.512Z,26.20
2022-08-30T18:29:10.629Z,26.00
2022-08-30T18:31:37.712Z,25.90
2022-08-30T18:34:04.688Z,25.80
2022-08-30T18:36:34.127Z,25.80
2022-08-30T18:39:01.217Z,25.70
2022-08-30T18:41:28.249Z,25.60
2022-08-30T18:44:11.259Z,25.50
2022-08-30T18:46:51.229Z,25.50
2022-08-30T18:49:32.191Z,25.50
2022-08-30T18:51:59.537Z,25.50
2022-08-30T18:54:26.387Z,25.50
2022-08-30T18:56:53.168Z,25.40
2022-08-30T18:59:22.066Z,25.40
2022-08-30T19:01:49.840Z,25.30
2022-08-30T19:04:29.497Z,25.20
2022-08-30T19:07:02.803Z,25.00
2022-08-30T19:09:29.630Z,24.90
2022-08-30T19:11:56.984Z,24.80
2022-08-30T19:14:24.013Z,24.90
2022-08-30T19:16:56.314Z,24.90
2022-08-30T19:19:23.892Z,24.90
2022-08-30T19:21:51.719Z,24.90
2022-08-30T19:24:19.492Z,24.80
2022-08-30T19:26:47.169Z,24.80
2022-08-30T19:29:15.990Z,24.70
2022-08-30T19:31:43.825Z,24.60
2022-08-30T19:34:11.331Z,24.50
2022-08-30T19:36:38.211Z,24.60
2022-08-30T19:39:06.753Z,24.60
2022-08-30T19:41:34.016Z,24.60
2022-08-30T19:44:03.012Z,24.60
2022-08-30T19:46:30.893Z,24.60
2022-08-30T19:49:01.065Z,24.60
2022-08-30T19:51:28.764Z,24.60
2022-08-30T19:53:58.987Z,24.60
2022-08-30T19:56:26.529Z,24.60
2022-08-30T19:58:53.360Z,24.50
2022-08-30T20:01:33.264Z,24.40
2022-08-30T20:04:04.073Z,24.30
2022-08-30T20:06:32.309Z,24.30
2022-08-30T20:09:00.338Z,24.10
2022-08-30T20:11:27.977Z,24.00
2022-08-30T20:13:54.757Z,23.90
2022-08-30T20:16:21.694Z,24.00
2022-08-30T20:18:59.849Z,24.10
2022-08-30T20:21:27.085Z,24.10
2022-08-30T20:23:58.033Z,24.00
2022-08-30T20:26:30.026Z,24.00
2022-08-30T20:29:01.896Z,23.80
2022-08-30T20:31:29.144Z,23.70
2022-08-30T20:33:56.455Z,23.70
2022-08-30T20:36:23.565Z,23.70
2022-08-30T20:38:51.126Z,23.70
2022-08-30T20:41:30.041Z,23.60
2022-08-30T20:44:06.050Z,23.60
2022-08-30T20:46:44.922Z,23.70
2022-08-30T20:49:22.026Z,23.60
2022-08-30T20:51:56.601Z,23.50
2022-08-30T20:54:28.064Z,23.70
2022-08-30T20:56:59.006Z,23.60
2022-08-30T20:59:30.900Z,21.80
2022-08-30T21:01:59.647Z,23.60
2022-08-30T21:04:27.272Z,23.50
2022-08-30T21:06:54.093Z,23.50
2022-08-30T21:09:20.901Z,23.50
2022-08-30T21:11:47.980Z,23.40
2022-08-30T21:14:14.917Z,23.30
2022-08-30T21:16:41.859Z,23.10
2022-08-30T21:19:09.229Z,23.10
2022-08-30T21:21:36.464Z,23.10
2022-08-30T21:24:10.378Z,23.00
2022-08-30T21:26:39.900Z,23.10
2022-08-30T21:29:07.953Z,23.10
2022-08-30T21:31:37.860Z,23.10
2022-08-30T21:34:05.214Z,23.10
2022-08-30T21:36:47.296Z,23.00
2022-08-30T21:39:26.297Z,22.90
2022-08-30T21:41:56.950Z,22.90
2022-08-30T21:44:26.824Z,23.20
2022-08-30T21:46:54.211Z,23.20
2022-08-30T21:49:23.355Z,23.10
2022-08-30T21:51:51.915Z,23.00
2022-08-30T21:54:19.303Z,23.00
2022-08-30T21:56:48.487Z,22.90
2022-08-30T21:59:15.840Z,23.00
2022-08-30T22:01:43.548Z,23.20
2022-08-30T22:04:12.100Z,23.10
2022-08-30T22:06:41.674Z,23.00
2022-08-30T22:09:13.638Z,23.00
2022-08-30T22:11:42.717Z,23.10
2022-08-30T22:14:10.505Z,22.90
2022-08-30T22:16:40.424Z,22.80
2022-08-30T22:19:07.725Z,22.70
2022-08-30T22:21:37.527Z,22.60
2022-08-30T22:24:05.080Z,22.90
2022-08-30T22:26:33.283Z,22.90
2022-08-30T22:29:00.384Z,22.90
2022-08-30T22:31:27.348Z,23.00
2022-08-30T22:33:55.024Z,22.90
2022-08-30T22:36:32.839Z,22.70
2022-08-30T22:39:01.414Z,22.60
2022-08-30T22:41:31.463Z,22.50
2022-08-30T22:43:58.466Z,22.40
2022-08-30T22:46:33.647Z,22.40
2022-08-30T22:49:03.719Z,22.50
2022-08-30T22:51:30.619Z,23.10
2022-08-30T22:53:57.737Z,23.20
2022-08-30T22:56:26.061Z,23.00
2022-08-30T22:58:55.085Z,22.90
2022-08-30T23:01:31.902Z,22.80
2022-08-30T23:04:01.218Z,22.70
2022-08-30T23:06:29.463Z,22.50
2022-08-30T23:08:56.578Z,22.30
2022-08-30T23:11:23.608Z,22.20
2022-08-30T23:13:51.743Z,22.20
2022-08-30T23:16:20.224Z,22.10
2022-08-30T23:18:47.746Z,22.10
2022-08-30T23:21:24.713Z,22.20
2022-08-30T23:24:12.501Z,22.20
2022-08-30T23:26:59.880Z,22.40
2022-08-30T23:29:45.805Z,22.10
2022-08-30T23:32:31.869Z,22.10
2022-08-30T23:35:17.747Z,22.00
2022-08-30T23:38:05.352Z,21.90
2022-08-30T23:40:50.836Z,21.90
2022-08-30T23:43:36.462Z,22.10
2022-08-30T23:46:22.480Z,21.90
2022-08-30T23:49:08.911Z,22.00
2022-08-30T23:51:55.993Z,22.00
2022-08-30T23:54:42.639Z,21.90
2022-08-30T23:57:28.128Z,21.70
